sensor_id;sensor_type;location;lat;lon;timestamp;P1;durP1;ratioP1;P2;durP2;ratioP2
10410;SDS011;5251;52.112;8.606;2022-07-24T00:01:27;9.10;;;5.80;;
10410;SDS011;5251;52.112;8.606;2022-07-24T00:03:53;7.32;;;4.35;;
10410;SDS011;5251;52.112;8.606;2022-07-24T00:06:18;5.20;;;3.53;;
10410;SDS011;5251;52.112;8.606;2022-07-24T00:08:44;3.17;;;2.47;;
10410;SDS011;5251;52.112;8.606;2022-07-24T00:11:09;3.45;;;2.15;;
10410;SDS011;5251;52.112;8.606;2022-07-24T00:13:35;3.17;;;2.20;;
10410;SDS011;5251;52.112;8.606;2022-07-24T00:16:01;2.28;;;2.08;;
10410;SDS011;5251;52.112;8.606;2022-07-24T00:18:27;2.50;;;2.30;;
10410;SDS011;5251;52.112;8.606;2022-07-24T00:20:53;2.28;;;2.08;;
10410;SDS011;5251;52.112;8.606;2022-07-24T00:23:18;2.78;;;2.30;;
10410;SDS011;5251;52.112;8.606;2022-07-24T00:25:44;2.33;;;2.13;;
10410;SDS011;5251;52.112;8.606;2022-07-24T00:28:09;2.60;;;2.40;;
10410;SDS011;5251;52.112;8.606;2022-07-24T00:30:35;2.63;;;2.22;;
10410;SDS011;5251;52.112;8.606;2022-07-24T00:33:02;2.60;;;2.40;;
10410;SDS011;5251;52.112;8.606;2022-07-24T00:35:28;2.85;;;2.33;;
10410;SDS011;5251;52.112;8.606;2022-07-24T00:37:54;2.33;;;2.13;;
10410;SDS011;5251;52.112;8.606;2022-07-24T00:40:19;2.55;;;2.30;;
10410;SDS011;5251;52.112;8.606;2022-07-24T00:42:45;3.10;;;2.30;;
10410;SDS011;5251;52.112;8.606;2022-07-24T00:45:11;2.85;;;2.60;;
10410;SDS011;5251;52.112;8.606;2022-07-24T00:47:36;3.67;;;2.35;;
10410;SDS011;5251;52.112;8.606;2022-07-24T00:50:02;3.20;;;2.22;;
10410;SDS011;5251;52.112;8.606;2022-07-24T00:52:29;2.75;;;2.00;;
10410;SDS011;5251;52.112;8.606;2022-07-24T00:54:55;2.42;;;2.22;;
10410;SDS011;5251;52.112;8.606;2022-07-24T00:57:21;4.30;;;2.50;;
10410;SDS011;5251;52.112;8.606;2022-07-24T00:59:47;2.90;;;2.60;;
10410;SDS011;5251;52.112;8.606;2022-07-24T01:02:12;4.13;;;2.65;;
10410;SDS011;5251;52.112;8.606;2022-07-24T01:04:38;2.95;;;2.47;;
10410;SDS011;5251;52.112;8.606;2022-07-24T01:07:04;3.33;;;2.70;;
10410;SDS011;5251;52.112;8.606;2022-07-24T01:09:31;5.68;;;2.70;;
10410;SDS011;5251;52.112;8.606;2022-07-24T01:11:57;2.95;;;2.58;;
10410;SDS011;5251;52.112;8.606;2022-07-24T01:14:25;3.60;;;2.75;;
10410;SDS011;5251;52.112;8.606;2022-07-24T01:16:51;3.00;;;2.63;;
10410;SDS011;5251;52.112;8.606;2022-07-24T01:19:17;3.13;;;2.70;;
10410;SDS011;5251;52.112;8.606;2022-07-24T01:21:50;4.45;;;2.50;;
10410;SDS011;5251;52.112;8.606;2022-07-24T01:24:17;3.25;;;2.70;;
10410;SDS011;5251;52.112;8.606;2022-07-24T01:26:44;3.05;;;2.75;;
10410;SDS011;5251;52.112;8.606;2022-07-24T01:29:10;2.78;;;2.58;;
10410;SDS011;5251;52.112;8.606;2022-07-24T01:31:36;3.42;;;2.90;;
10410;SDS011;5251;52.112;8.606;2022-07-24T01:34:02;3.95;;;2.70;;
10410;SDS011;5251;52.112;8.606;2022-07-24T01:36:28;2.88;;;2.30;;
10410;SDS011;5251;52.112;8.606;2022-07-24T01:38:54;3.00;;;2.50;;
10410;SDS011;5251;52.112;8.606;2022-07-24T01:41:19;2.70;;;2.50;;
10410;SDS011;5251;52.112;8.606;2022-07-24T01:43:45;2.40;;;2.13;;
10410;SDS011;5251;52.112;8.606;2022-07-24T01:46:11;2.75;;;2.50;;
10410;SDS011;5251;52.112;8.606;2022-07-24T01:48:37;2.70;;;2.50;;
10410;SDS011;5251;52.112;8.606;2022-07-24T01:51:03;3.40;;;3.00;;
10410;SDS011;5251;52.112;8.606;2022-07-24T01:53:29;3.03;;;2.80;;
10410;SDS011;5251;52.112;8.606;2022-07-24T01:55:55;3.55;;;2.70;;
10410;SDS011;5251;52.112;8.606;2022-07-24T01:58:21;2.80;;;2.47;;
10410;SDS011;5251;52.112;8.606;2022-07-24T02:00:47;4.22;;;2.50;;
10410;SDS011;5251;52.112;8.606;2022-07-24T02:03:12;3.00;;;2.45;;
10410;SDS011;5251;52.112;8.606;2022-07-24T02:05:38;3.08;;;2.78;;
10410;SDS011;5251;52.112;8.606;2022-07-24T02:08:04;2.90;;;2.70;;
10410;SDS011;5251;52.112;8.606;2022-07-24T02:10:30;3.08;;;2.55;;
10410;SDS011;5251;52.112;8.606;2022-07-24T02:12:56;2.80;;;2.50;;
10410;SDS011;5251;52.112;8.606;2022-07-24T02:15:22;2.75;;;2.47;;
10410;SDS011;5251;52.112;8.606;2022-07-24T02:17:49;2.88;;;2.35;;
10410;SDS011;5251;52.112;8.606;2022-07-24T02:20:15;3.38;;;2.83;;
10410;SDS011;5251;52.112;8.606;2022-07-24T02:22:42;2.78;;;2.53;;
10410;SDS011;5251;52.112;8.606;2022-07-24T02:25:07;2.70;;;2.50;;
10410;SDS011;5251;52.112;8.606;2022-07-24T02:27:34;5.28;;;2.60;;
10410;SDS011;5251;52.112;8.606;2022-07-24T02:30:00;3.15;;;2.45;;
10410;SDS011;5251;52.112;8.606;2022-07-24T02:32:27;3.25;;;2.28;;
10410;SDS011;5251;52.112;8.606;2022-07-24T02:34:52;2.58;;;2.38;;
10410;SDS011;5251;52.112;8.606;2022-07-24T02:37:18;4.63;;;2.40;;
10410;SDS011;5251;52.112;8.606;2022-07-24T02:39:43;2.55;;;2.35;;
10410;SDS011;5251;52.112;8.606;2022-07-24T02:42:09;2.50;;;2.30;;
10410;SDS011;5251;52.112;8.606;2022-07-24T02:44:34;2.58;;;2.38;;
10410;SDS011;5251;52.112;8.606;2022-07-24T02:47:00;2.70;;;2.50;;
10410;SDS011;5251;52.112;8.606;2022-07-24T02:49:25;2.83;;;2.50;;
10410;SDS011;5251;52.112;8.606;2022-07-24T02:51:51;2.75;;;2.45;;
10410;SDS011;5251;52.112;8.606;2022-07-24T02:54:16;2.63;;;2.42;;
10410;SDS011;5251;52.112;8.606;2022-07-24T02:56:42;2.90;;;2.60;;
10410;SDS011;5251;52.112;8.606;2022-07-24T02:59:08;2.90;;;2.30;;
10410;SDS011;5251;52.112;8.606;2022-07-24T03:01:34;3.25;;;2.40;;
10410;SDS011;5251;52.112;8.606;2022-07-24T03:03:59;2.97;;;2.67;;
10410;SDS011;5251;52.112;8.606;2022-07-24T03:06:25;2.88;;;2.67;;
10410;SDS011;5251;52.112;8.606;2022-07-24T03:08:51;3.00;;;2.80;;
10410;SDS011;5251;52.112;8.606;2022-07-24T03:11:16;2.92;;;2.67;;
10410;SDS011;5251;52.112;8.606;2022-07-24T03:13:42;2.90;;;2.70;;
10410;SDS011;5251;52.112;8.606;2022-07-24T03:16:07;5.28;;;2.78;;
10410;SDS011;5251;52.112;8.606;2022-07-24T03:18:33;2.72;;;2.50;;
10410;SDS011;5251;52.112;8.606;2022-07-24T03:20:59;3.17;;;2.88;;
10410;SDS011;5251;52.112;8.606;2022-07-24T03:23:25;3.50;;;2.60;;
10410;SDS011;5251;52.112;8.606;2022-07-24T03:25:50;3.03;;;2.72;;
10410;SDS011;5251;52.112;8.606;2022-07-24T03:28:17;2.88;;;2.58;;
10410;SDS011;5251;52.112;8.606;2022-07-24T03:30:43;3.63;;;2.95;;
10410;SDS011;5251;52.112;8.606;2022-07-24T03:33:08;2.60;;;2.35;;
10410;SDS011;5251;52.112;8.606;2022-07-24T03:35:34;3.28;;;2.80;;
10410;SDS011;5251;52.112;8.606;2022-07-24T03:38:00;3.47;;;2.60;;
10410;SDS011;5251;52.112;8.606;2022-07-24T03:40:25;4.72;;;2.78;;
10410;SDS011;5251;52.112;8.606;2022-07-24T03:42:51;4.82;;;2.60;;
10410;SDS011;5251;52.112;8.606;2022-07-24T03:45:17;3.45;;;2.75;;
10410;SDS011;5251;52.112;8.606;2022-07-24T03:47:42;3.70;;;2.70;;
10410;SDS011;5251;52.112;8.606;2022-07-24T03:50:08;3.92;;;2.90;;
10410;SDS011;5251;52.112;8.606;2022-07-24T03:52:34;2.70;;;2.50;;
10410;SDS011;5251;52.112;8.606;2022-07-24T03:54:59;4.22;;;2.67;;
10410;SDS011;5251;52.112;8.606;2022-07-24T03:57:25;2.60;;;2.40;;
10410;SDS011;5251;52.112;8.606;2022-07-24T03:59:50;2.90;;;2.58;;
10410;SDS011;5251;52.112;8.606;2022-07-24T04:02:17;3.72;;;2.90;;
10410;SDS011;5251;52.112;8.606;2022-07-24T04:04:42;3.22;;;2.92;;
10410;SDS011;5251;52.112;8.606;2022-07-24T04:07:08;3.47;;;2.50;;
10410;SDS011;5251;52.112;8.606;2022-07-24T04:09:34;3.28;;;2.40;;
10410;SDS011;5251;52.112;8.606;2022-07-24T04:11:59;3.53;;;2.80;;
10410;SDS011;5251;52.112;8.606;2022-07-24T04:14:25;2.60;;;2.40;;
10410;SDS011;5251;52.112;8.606;2022-07-24T04:16:51;3.13;;;2.58;;
10410;SDS011;5251;52.112;8.606;2022-07-24T04:19:16;2.60;;;2.30;;
10410;SDS011;5251;52.112;8.606;2022-07-24T04:21:42;2.40;;;2.20;;
10410;SDS011;5251;52.112;8.606;2022-07-24T04:24:07;3.35;;;2.50;;
10410;SDS011;5251;52.112;8.606;2022-07-24T04:26:33;2.90;;;2.70;;
10410;SDS011;5251;52.112;8.606;2022-07-24T04:28:59;3.47;;;2.80;;
10410;SDS011;5251;52.112;8.606;2022-07-24T04:31:24;3.10;;;2.55;;
10410;SDS011;5251;52.112;8.606;2022-07-24T04:33:50;3.05;;;2.65;;
10410;SDS011;5251;52.112;8.606;2022-07-24T04:36:16;3.08;;;2.55;;
10410;SDS011;5251;52.112;8.606;2022-07-24T04:38:41;2.67;;;2.35;;
10410;SDS011;5251;52.112;8.606;2022-07-24T04:41:07;2.50;;;2.30;;
10410;SDS011;5251;52.112;8.606;2022-07-24T04:43:33;2.50;;;2.30;;
10410;SDS011;5251;52.112;8.606;2022-07-24T04:45:58;2.63;;;2.30;;
10410;SDS011;5251;52.112;8.606;2022-07-24T04:48:24;2.65;;;2.45;;
10410;SDS011;5251;52.112;8.606;2022-07-24T04:50:52;3.60;;;2.35;;
10410;SDS011;5251;52.112;8.606;2022-07-24T04:53:18;2.85;;;2.40;;
10410;SDS011;5251;52.112;8.606;2022-07-24T04:55:43;2.78;;;2.40;;
10410;SDS011;5251;52.112;8.606;2022-07-24T04:58:09;4.28;;;2.35;;
10410;SDS011;5251;52.112;8.606;2022-07-24T05:00:35;4.38;;;2.65;;
10410;SDS011;5251;52.112;8.606;2022-07-24T05:03:00;3.45;;;2.40;;
10410;SDS011;5251;52.112;8.606;2022-07-24T05:05:26;3.38;;;2.67;;
10410;SDS011;5251;52.112;8.606;2022-07-24T05:07:51;3.85;;;2.40;;
10410;SDS011;5251;52.112;8.606;2022-07-24T05:10:17;2.67;;;2.00;;
10410;SDS011;5251;52.112;8.606;2022-07-24T05:12:43;2.60;;;2.20;;
10410;SDS011;5251;52.112;8.606;2022-07-24T05:15:09;2.20;;;2.00;;
10410;SDS011;5251;52.112;8.606;2022-07-24T05:17:35;2.20;;;2.00;;
10410;SDS011;5251;52.112;8.606;2022-07-24T05:20:01;2.67;;;2.17;;
10410;SDS011;5251;52.112;8.606;2022-07-24T05:22:28;3.47;;;2.40;;
10410;SDS011;5251;52.112;8.606;2022-07-24T05:24:54;2.42;;;2.20;;
10410;SDS011;5251;52.112;8.606;2022-07-24T05:27:19;2.35;;;2.15;;
10410;SDS011;5251;52.112;8.606;2022-07-24T05:29:45;2.50;;;2.30;;
10410;SDS011;5251;52.112;8.606;2022-07-24T05:32:11;3.97;;;2.28;;
10410;SDS011;5251;52.112;8.606;2022-07-24T05:34:37;2.25;;;2.00;;
10410;SDS011;5251;52.112;8.606;2022-07-24T05:37:03;2.13;;;1.92;;
10410;SDS011;5251;52.112;8.606;2022-07-24T05:39:29;3.30;;;2.20;;
10410;SDS011;5251;52.112;8.606;2022-07-24T05:41:54;2.33;;;1.75;;
10410;SDS011;5251;52.112;8.606;2022-07-24T05:44:20;2.30;;;2.10;;
10410;SDS011;5251;52.112;8.606;2022-07-24T05:46:46;2.20;;;2.00;;
10410;SDS011;5251;52.112;8.606;2022-07-24T05:49:12;2.63;;;2.03;;
10410;SDS011;5251;52.112;8.606;2022-07-24T05:51:38;3.00;;;2.10;;
10410;SDS011;5251;52.112;8.606;2022-07-24T05:54:04;2.15;;;1.90;;
10410;SDS011;5251;52.112;8.606;2022-07-24T05:56:30;3.10;;;1.80;;
10410;SDS011;5251;52.112;8.606;2022-07-24T05:58:55;4.07;;;2.00;;
10410;SDS011;5251;52.112;8.606;2022-07-24T06:01:21;4.32;;;2.15;;
10410;SDS011;5251;52.112;8.606;2022-07-24T06:03:47;2.67;;;2.00;;
10410;SDS011;5251;52.112;8.606;2022-07-24T06:06:13;3.00;;;2.15;;
10410;SDS011;5251;52.112;8.606;2022-07-24T06:08:38;2.10;;;1.90;;
10410;SDS011;5251;52.112;8.606;2022-07-24T06:11:04;3.40;;;2.00;;
10410;SDS011;5251;52.112;8.606;2022-07-24T06:13:30;1.70;;;1.60;;
10410;SDS011;5251;52.112;8.606;2022-07-24T06:15:56;2.03;;;1.90;;
10410;SDS011;5251;52.112;8.606;2022-07-24T06:18:21;3.78;;;1.88;;
10410;SDS011;5251;52.112;8.606;2022-07-24T06:20:50;2.85;;;1.80;;
10410;SDS011;5251;52.112;8.606;2022-07-24T06:23:15;2.00;;;1.80;;
10410;SDS011;5251;52.112;8.606;2022-07-24T06:25:41;2.90;;;1.85;;
10410;SDS011;5251;52.112;8.606;2022-07-24T06:28:07;2.00;;;1.80;;
10410;SDS011;5251;52.112;8.606;2022-07-24T06:30:32;2.20;;;1.77;;
10410;SDS011;5251;52.112;8.606;2022-07-24T06:32:58;2.35;;;1.92;;
10410;SDS011;5251;52.112;8.606;2022-07-24T06:35:24;2.35;;;1.77;;
10410;SDS011;5251;52.112;8.606;2022-07-24T06:37:51;1.85;;;1.70;;
10410;SDS011;5251;52.112;8.606;2022-07-24T06:40:18;2.90;;;1.85;;
10410;SDS011;5251;52.112;8.606;2022-07-24T06:42:45;1.90;;;1.80;;
10410;SDS011;5251;52.112;8.606;2022-07-24T06:45:11;2.08;;;1.88;;
10410;SDS011;5251;52.112;8.606;2022-07-24T06:47:37;2.50;;;2.03;;
10410;SDS011;5251;52.112;8.606;2022-07-24T06:50:04;2.30;;;2.10;;
10410;SDS011;5251;52.112;8.606;2022-07-24T06:52:30;1.80;;;1.70;;
10410;SDS011;5251;52.112;8.606;2022-07-24T06:54:56;2.47;;;1.88;;
10410;SDS011;5251;52.112;8.606;2022-07-24T06:57:22;2.55;;;2.10;;
10410;SDS011;5251;52.112;8.606;2022-07-24T06:59:50;2.00;;;1.73;;
10410;SDS011;5251;52.112;8.606;2022-07-24T07:02:17;3.15;;;2.13;;
10410;SDS011;5251;52.112;8.606;2022-07-24T07:04:43;1.95;;;1.80;;
10410;SDS011;5251;52.112;8.606;2022-07-24T07:07:08;1.70;;;1.58;;
10410;SDS011;5251;52.112;8.606;2022-07-24T07:09:34;1.90;;;1.75;;
10410;SDS011;5251;52.112;8.606;2022-07-24T07:12:00;2.72;;;1.75;;
10410;SDS011;5251;52.112;8.606;2022-07-24T07:14:26;2.25;;;1.83;;
10410;SDS011;5251;52.112;8.606;2022-07-24T07:16:52;2.10;;;2.00;;
10410;SDS011;5251;52.112;8.606;2022-07-24T07:19:18;1.95;;;1.85;;
10410;SDS011;5251;52.112;8.606;2022-07-24T07:21:43;2.53;;;1.98;;
10410;SDS011;5251;52.112;8.606;2022-07-24T07:24:09;2.30;;;2.10;;
10410;SDS011;5251;52.112;8.606;2022-07-24T07:26:35;2.25;;;2.05;;
10410;SDS011;5251;52.112;8.606;2022-07-24T07:29:00;2.88;;;2.10;;
10410;SDS011;5251;52.112;8.606;2022-07-24T07:31:26;2.20;;;2.00;;
10410;SDS011;5251;52.112;8.606;2022-07-24T07:33:52;3.80;;;2.10;;
10410;SDS011;5251;52.112;8.606;2022-07-24T07:36:18;2.28;;;1.83;;
10410;SDS011;5251;52.112;8.606;2022-07-24T07:38:44;3.80;;;2.28;;
10410;SDS011;5251;52.112;8.606;2022-07-24T07:41:10;2.28;;;2.00;;
10410;SDS011;5251;52.112;8.606;2022-07-24T07:43:37;2.50;;;2.30;;
10410;SDS011;5251;52.112;8.606;2022-07-24T07:46:03;1.92;;;1.80;;
10410;SDS011;5251;52.112;8.606;2022-07-24T07:48:29;2.38;;;2.17;;
10410;SDS011;5251;52.112;8.606;2022-07-24T07:50:55;2.20;;;2.00;;
10410;SDS011;5251;52.112;8.606;2022-07-24T07:53:21;2.30;;;2.10;;
10410;SDS011;5251;52.112;8.606;2022-07-24T07:55:47;3.13;;;2.30;;
10410;SDS011;5251;52.112;8.606;2022-07-24T07:58:16;2.22;;;2.03;;
10410;SDS011;5251;52.112;8.606;2022-07-24T08:00:42;3.63;;;2.40;;
10410;SDS011;5251;52.112;8.606;2022-07-24T08:03:08;3.40;;;2.22;;
10410;SDS011;5251;52.112;8.606;2022-07-24T08:05:34;4.22;;;2.35;;
10410;SDS011;5251;52.112;8.606;2022-07-24T08:07:59;2.53;;;2.33;;
10410;SDS011;5251;52.112;8.606;2022-07-24T08:10:25;2.70;;;2.35;;
10410;SDS011;5251;52.112;8.606;2022-07-24T08:12:51;2.75;;;2.55;;
10410;SDS011;5251;52.112;8.606;2022-07-24T08:15:17;6.07;;;2.80;;
10410;SDS011;5251;52.112;8.606;2022-07-24T08:17:43;2.63;;;2.33;;
10410;SDS011;5251;52.112;8.606;2022-07-24T08:20:09;2.40;;;2.20;;
10410;SDS011;5251;52.112;8.606;2022-07-24T08:22:35;2.60;;;2.40;;
10410;SDS011;5251;52.112;8.606;2022-07-24T08:25:01;3.50;;;2.72;;
10410;SDS011;5251;52.112;8.606;2022-07-24T08:27:27;3.28;;;2.92;;
10410;SDS011;5251;52.112;8.606;2022-07-24T08:29:52;3.10;;;2.78;;
10410;SDS011;5251;52.112;8.606;2022-07-24T08:32:19;3.58;;;3.03;;
10410;SDS011;5251;52.112;8.606;2022-07-24T08:34:45;9.50;;;2.70;;
10410;SDS011;5251;52.112;8.606;2022-07-24T08:37:11;3.08;;;2.60;;
10410;SDS011;5251;52.112;8.606;2022-07-24T08:39:36;4.32;;;2.92;;
10410;SDS011;5251;52.112;8.606;2022-07-24T08:42:02;3.08;;;2.67;;
10410;SDS011;5251;52.112;8.606;2022-07-24T08:44:28;4.60;;;3.05;;
10410;SDS011;5251;52.112;8.606;2022-07-24T08:46:54;3.20;;;2.90;;
10410;SDS011;5251;52.112;8.606;2022-07-24T08:49:21;3.63;;;3.10;;
10410;SDS011;5251;52.112;8.606;2022-07-24T08:51:48;3.17;;;2.88;;
10410;SDS011;5251;52.112;8.606;2022-07-24T08:54:15;3.08;;;2.78;;
10410;SDS011;5251;52.112;8.606;2022-07-24T08:56:40;2.80;;;2.60;;
10410;SDS011;5251;52.112;8.606;2022-07-24T08:59:19;4.53;;;2.70;;
10410;SDS011;5251;52.112;8.606;2022-07-24T09:01:49;2.75;;;2.53;;
10410;SDS011;5251;52.112;8.606;2022-07-24T09:07:22;3.47;;;2.90;;
10410;SDS011;5251;52.112;8.606;2022-07-24T09:10:01;3.03;;;2.72;;
10410;SDS011;5251;52.112;8.606;2022-07-24T09:12:30;4.00;;;2.92;;
10410;SDS011;5251;52.112;8.606;2022-07-24T09:14:57;5.13;;;3.10;;
10410;SDS011;5251;52.112;8.606;2022-07-24T09:17:24;3.72;;;3.20;;
10410;SDS011;5251;52.112;8.606;2022-07-24T09:19:51;4.78;;;3.28;;
10410;SDS011;5251;52.112;8.606;2022-07-24T09:27:39;3.22;;;3.00;;
10410;SDS011;5251;52.112;8.606;2022-07-24T09:30:23;3.35;;;2.92;;
10410;SDS011;5251;52.112;8.606;2022-07-24T09:33:07;3.55;;;3.25;;
10410;SDS011;5251;52.112;8.606;2022-07-24T09:35:36;3.60;;;3.30;;
10410;SDS011;5251;52.112;8.606;2022-07-24T09:38:13;3.63;;;3.33;;
10410;SDS011;5251;52.112;8.606;2022-07-24T09:40:46;4.05;;;3.47;;
10410;SDS011;5251;52.112;8.606;2022-07-24T09:48:33;4.03;;;3.10;;
10410;SDS011;5251;52.112;8.606;2022-07-24T09:51:19;4.03;;;3.63;;
10410;SDS011;5251;52.112;8.606;2022-07-24T09:53:46;4.15;;;3.58;;
10410;SDS011;5251;52.112;8.606;2022-07-24T09:56:17;4.13;;;3.50;;
10410;SDS011;5251;52.112;8.606;2022-07-24T10:01:12;4.15;;;3.47;;
10410;SDS011;5251;52.112;8.606;2022-07-24T10:03:41;4.00;;;3.58;;
10410;SDS011;5251;52.112;8.606;2022-07-24T10:06:09;5.03;;;3.25;;
10410;SDS011;5251;52.112;8.606;2022-07-24T10:08:38;4.22;;;3.33;;
10410;SDS011;5251;52.112;8.606;2022-07-24T10:11:05;3.40;;;3.10;;
10410;SDS011;5251;52.112;8.606;2022-07-24T10:13:31;3.60;;;3.30;;
10410;SDS011;5251;52.112;8.606;2022-07-24T10:21:18;3.60;;;3.30;;
10410;SDS011;5251;52.112;8.606;2022-07-24T10:29:10;4.18;;;3.38;;
10410;SDS011;5251;52.112;8.606;2022-07-24T10:31:47;4.25;;;3.70;;
10410;SDS011;5251;52.112;8.606;2022-07-24T10:36:54;3.50;;;3.20;;
10410;SDS011;5251;52.112;8.606;2022-07-24T10:39:36;3.60;;;3.30;;
10410;SDS011;5251;52.112;8.606;2022-07-24T10:42:15;4.43;;;3.90;;
10410;SDS011;5251;52.112;8.606;2022-07-24T10:44:41;7.20;;;3.67;;
10410;SDS011;5251;52.112;8.606;2022-07-24T10:47:09;3.70;;;3.40;;
10410;SDS011;5251;52.112;8.606;2022-07-24T10:49:47;4.03;;;3.50;;
10410;SDS011;5251;52.112;8.606;2022-07-24T11:00:30;3.72;;;3.40;;
10410;SDS011;5251;52.112;8.606;2022-07-24T11:03:03;3.88;;;3.47;;
10410;SDS011;5251;52.112;8.606;2022-07-24T11:05:36;3.55;;;3.25;;
10410;SDS011;5251;52.112;8.606;2022-07-24T11:10:51;3.80;;;3.50;;
10410;SDS011;5251;52.112;8.606;2022-07-24T11:21:27;3.65;;;3.25;;
10410;SDS011;5251;52.112;8.606;2022-07-24T11:24:18;3.47;;;3.17;;
10410;SDS011;5251;52.112;8.606;2022-07-24T11:29:22;3.20;;;2.97;;
10410;SDS011;5251;52.112;8.606;2022-07-24T11:31:50;4.47;;;3.50;;
10410;SDS011;5251;52.112;8.606;2022-07-24T11:34:19;4.20;;;3.30;;
10410;SDS011;5251;52.112;8.606;2022-07-24T11:36:46;3.97;;;3.40;;
10410;SDS011;5251;52.112;8.606;2022-07-24T11:39:14;5.45;;;3.42;;
10410;SDS011;5251;52.112;8.606;2022-07-24T11:44:14;3.67;;;3.35;;
10410;SDS011;5251;52.112;8.606;2022-07-24T11:46:46;4.03;;;3.72;;
10410;SDS011;5251;52.112;8.606;2022-07-24T11:49:11;3.63;;;3.33;;
10410;SDS011;5251;52.112;8.606;2022-07-24T11:51:44;3.42;;;3.13;;
10410;SDS011;5251;52.112;8.606;2022-07-24T11:54:11;3.85;;;3.55;;
10410;SDS011;5251;52.112;8.606;2022-07-24T11:56:38;3.53;;;3.20;;
10410;SDS011;5251;52.112;8.606;2022-07-24T11:59:04;4.05;;;3.65;;
10410;SDS011;5251;52.112;8.606;2022-07-24T12:01:30;3.67;;;3.30;;
10410;SDS011;5251;52.112;8.606;2022-07-24T12:03:57;3.42;;;3.03;;
10410;SDS011;5251;52.112;8.606;2022-07-24T12:06:25;3.75;;;3.45;;
10410;SDS011;5251;52.112;8.606;2022-07-24T12:08:56;3.53;;;3.22;;
10410;SDS011;5251;52.112;8.606;2022-07-24T12:11:33;3.60;;;3.30;;
10410;SDS011;5251;52.112;8.606;2022-07-24T12:14:00;3.83;;;3.30;;
10410;SDS011;5251;52.112;8.606;2022-07-24T12:16:26;3.50;;;3.20;;
10410;SDS011;5251;52.112;8.606;2022-07-24T12:19:17;4.03;;;3.63;;
10410;SDS011;5251;52.112;8.606;2022-07-24T12:21:48;4.00;;;3.53;;
10410;SDS011;5251;52.112;8.606;2022-07-24T12:24:16;4.10;;;3.80;;
10410;SDS011;5251;52.112;8.606;2022-07-24T12:26:55;3.80;;;3.30;;
10410;SDS011;5251;52.112;8.606;2022-07-24T12:29:22;3.65;;;3.30;;
10410;SDS011;5251;52.112;8.606;2022-07-24T12:31:49;3.78;;;3.45;;
10410;SDS011;5251;52.112;8.606;2022-07-24T12:34:17;3.92;;;3.63;;
10410;SDS011;5251;52.112;8.606;2022-07-24T12:36:43;4.00;;;3.60;;
10410;SDS011;5251;52.112;8.606;2022-07-24T12:39:09;3.50;;;3.13;;
10410;SDS011;5251;52.112;8.606;2022-07-24T12:41:44;3.22;;;2.92;;
10410;SDS011;5251;52.112;8.606;2022-07-24T12:44:13;3.42;;;3.13;;
10410;SDS011;5251;52.112;8.606;2022-07-24T12:46:40;4.65;;;3.40;;
10410;SDS011;5251;52.112;8.606;2022-07-24T12:49:16;4.05;;;3.08;;
10410;SDS011;5251;52.112;8.606;2022-07-24T12:51:49;3.10;;;2.80;;
10410;SDS011;5251;52.112;8.606;2022-07-24T12:54:17;3.00;;;2.80;;
10410;SDS011;5251;52.112;8.606;2022-07-24T12:56:51;3.58;;;3.28;;
10410;SDS011;5251;52.112;8.606;2022-07-24T12:59:22;3.47;;;3.17;;
10410;SDS011;5251;52.112;8.606;2022-07-24T13:01:52;4.22;;;3.30;;
10410;SDS011;5251;52.112;8.606;2022-07-24T13:04:20;3.63;;;3.22;;
10410;SDS011;5251;52.112;8.606;2022-07-24T13:06:49;3.28;;;3.00;;
10410;SDS011;5251;52.112;8.606;2022-07-24T13:09:16;3.30;;;3.00;;
10410;SDS011;5251;52.112;8.606;2022-07-24T13:11:44;3.20;;;2.90;;
10410;SDS011;5251;52.112;8.606;2022-07-24T13:14:11;3.60;;;3.30;;
10410;SDS011;5251;52.112;8.606;2022-07-24T13:16:38;3.28;;;2.95;;
10410;SDS011;5251;52.112;8.606;2022-07-24T13:19:06;3.50;;;3.20;;
10410;SDS011;5251;52.112;8.606;2022-07-24T13:21:32;3.20;;;2.90;;
10410;SDS011;5251;52.112;8.606;2022-07-24T13:23:58;3.63;;;3.10;;
10410;SDS011;5251;52.112;8.606;2022-07-24T13:26:25;3.72;;;2.72;;
10410;SDS011;5251;52.112;8.606;2022-07-24T13:28:50;3.25;;;2.95;;
10410;SDS011;5251;52.112;8.606;2022-07-24T13:31:16;3.38;;;3.05;;
10410;SDS011;5251;52.112;8.606;2022-07-24T13:33:44;3.60;;;3.30;;
10410;SDS011;5251;52.112;8.606;2022-07-24T13:36:11;3.00;;;2.80;;
10410;SDS011;5251;52.112;8.606;2022-07-24T13:38:37;3.10;;;2.90;;
10410;SDS011;5251;52.112;8.606;2022-07-24T13:41:03;3.63;;;2.70;;
10410;SDS011;5251;52.112;8.606;2022-07-24T13:43:28;2.90;;;2.70;;
10410;SDS011;5251;52.112;8.606;2022-07-24T13:45:54;3.20;;;3.00;;
10410;SDS011;5251;52.112;8.606;2022-07-24T13:48:20;3.50;;;3.10;;
10410;SDS011;5251;52.112;8.606;2022-07-24T13:50:45;3.10;;;2.80;;
10410;SDS011;5251;52.112;8.606;2022-07-24T13:53:11;3.38;;;2.90;;
10410;SDS011;5251;52.112;8.606;2022-07-24T13:55:36;3.10;;;2.80;;
10410;SDS011;5251;52.112;8.606;2022-07-24T13:58:02;3.35;;;3.05;;
10410;SDS011;5251;52.112;8.606;2022-07-24T14:00:28;3.20;;;2.92;;
10410;SDS011;5251;52.112;8.606;2022-07-24T14:02:53;3.20;;;2.90;;
10410;SDS011;5251;52.112;8.606;2022-07-24T14:05:23;3.40;;;3.10;;
10410;SDS011;5251;52.112;8.606;2022-07-24T14:07:51;3.30;;;3.00;;
10410;SDS011;5251;52.112;8.606;2022-07-24T14:10:18;3.65;;;3.03;;
10410;SDS011;5251;52.112;8.606;2022-07-24T14:12:44;3.08;;;2.88;;
10410;SDS011;5251;52.112;8.606;2022-07-24T14:15:10;3.30;;;2.97;;
10410;SDS011;5251;52.112;8.606;2022-07-24T14:17:39;3.13;;;2.88;;
10410;SDS011;5251;52.112;8.606;2022-07-24T14:20:05;3.50;;;3.20;;
10410;SDS011;5251;52.112;8.606;2022-07-24T14:22:33;3.00;;;2.80;;
10410;SDS011;5251;52.112;8.606;2022-07-24T14:24:59;3.22;;;2.92;;
10410;SDS011;5251;52.112;8.606;2022-07-24T14:27:25;3.30;;;2.88;;
10410;SDS011;5251;52.112;8.606;2022-07-24T14:29:51;3.10;;;2.90;;
10410;SDS011;5251;52.112;8.606;2022-07-24T14:32:16;4.05;;;2.97;;
10410;SDS011;5251;52.112;8.606;2022-07-24T14:34:42;3.10;;;2.90;;
10410;SDS011;5251;52.112;8.606;2022-07-24T14:37:07;3.45;;;3.15;;
10410;SDS011;5251;52.112;8.606;2022-07-24T14:39:33;3.00;;;2.70;;
10410;SDS011;5251;52.112;8.606;2022-07-24T14:41:59;3.35;;;3.05;;
10410;SDS011;5251;52.112;8.606;2022-07-24T14:44:24;3.10;;;2.80;;
10410;SDS011;5251;52.112;8.606;2022-07-24T14:46:50;3.03;;;2.83;;
10410;SDS011;5251;52.112;8.606;2022-07-24T14:49:15;3.03;;;2.72;;
10410;SDS011;5251;52.112;8.606;2022-07-24T14:51:41;3.15;;;2.95;;
10410;SDS011;5251;52.112;8.606;2022-07-24T14:54:07;2.95;;;2.75;;
10410;SDS011;5251;52.112;8.606;2022-07-24T14:56:34;4.32;;;3.00;;
10410;SDS011;5251;52.112;8.606;2022-07-24T14:59:01;3.25;;;3.00;;
10410;SDS011;5251;52.112;8.606;2022-07-24T15:01:27;2.80;;;2.60;;
10410;SDS011;5251;52.112;8.606;2022-07-24T15:03:52;3.30;;;3.00;;
10410;SDS011;5251;52.112;8.606;2022-07-24T15:06:19;3.53;;;3.08;;
10410;SDS011;5251;52.112;8.606;2022-07-24T15:08:46;2.95;;;2.75;;
10410;SDS011;5251;52.112;8.606;2022-07-24T15:11:12;3.50;;;3.20;;
10410;SDS011;5251;52.112;8.606;2022-07-24T15:13:38;3.05;;;2.78;;
10410;SDS011;5251;52.112;8.606;2022-07-24T15:16:05;3.33;;;2.80;;
10410;SDS011;5251;52.112;8.606;2022-07-24T15:18:32;3.05;;;2.70;;
10410;SDS011;5251;52.112;8.606;2022-07-24T15:20:58;3.83;;;2.65;;
10410;SDS011;5251;52.112;8.606;2022-07-24T15:23:24;3.10;;;2.90;;
10410;SDS011;5251;52.112;8.606;2022-07-24T15:25:49;2.80;;;2.60;;
10410;SDS011;5251;52.112;8.606;2022-07-24T15:28:15;3.20;;;2.95;;
10410;SDS011;5251;52.112;8.606;2022-07-24T15:30:41;3.00;;;2.80;;
10410;SDS011;5251;52.112;8.606;2022-07-24T15:33:06;3.20;;;3.00;;
10410;SDS011;5251;52.112;8.606;2022-07-24T15:35:32;3.13;;;2.90;;
10410;SDS011;5251;52.112;8.606;2022-07-24T15:37:57;3.05;;;2.85;;
10410;SDS011;5251;52.112;8.606;2022-07-24T15:40:23;5.70;;;2.53;;
10410;SDS011;5251;52.112;8.606;2022-07-24T15:42:52;3.85;;;3.45;;
10410;SDS011;5251;52.112;8.606;2022-07-24T15:45:19;3.03;;;2.83;;
10410;SDS011;5251;52.112;8.606;2022-07-24T15:47:45;3.40;;;3.10;;
10410;SDS011;5251;52.112;8.606;2022-07-24T15:50:10;3.05;;;2.85;;
10410;SDS011;5251;52.112;8.606;2022-07-24T15:52:36;3.00;;;2.80;;